ENVR/VRY METAR and TAF weather

Enter ICAO airport designator
Station Type Date Time Source
ENVR METAR 2019/10/20 12:50 UTC NOAA

ENVR 201250Z 23013KT 9999 FEW020 SCT060 04/01 Q1014


Station Type Date Time Source
ENVR Decoded METAR 2019/10/20 12:50 UTC NOAA

Station name not available
Oct 20, 2019 - 08:50 AM EDT / 2019.10.20 1250 UTC
Wind: from the SW (230 degrees) at 15 MPH (13 KT):0
Visibility: greater than 7 mile(s):0
Sky conditions: partly cloudy
Temperature: 39 F (4 C)
Dew Point: 33 F (1 C)
Relative Humidity: 80%
Pressure (altimeter): 29.94 in. Hg (1014 hPa)
ob: ENVR 201250Z 23013KT 9999 FEW020 SCT060 04/01 Q1014
cycle: 13

Station Type Date Time Source
ENVR TAF UTC NOAA

Error!

Example: see airport list